sensor_id;sensor_type;location;lat;lon;timestamp;P1;durP1;ratioP1;P2;durP2;ratioP2
33902;SDS011;20194;50.950;5.346;2024-02-21T00:00:55;50.30;;;17.45;;
33902;SDS011;20194;50.950;5.346;2024-02-21T00:03:21;44.38;;;17.85;;
33902;SDS011;20194;50.950;5.346;2024-02-21T00:05:47;43.67;;;16.05;;
33902;SDS011;20194;50.950;5.346;2024-02-21T00:08:12;49.10;;;17.88;;
33902;SDS011;20194;50.950;5.346;2024-02-21T00:10:38;39.25;;;16.42;;
33902;SDS011;20194;50.950;5.346;2024-02-21T00:13:04;40.30;;;15.25;;
33902;SDS011;20194;50.950;5.346;2024-02-21T00:15:29;44.88;;;16.80;;
33902;SDS011;20194;50.950;5.346;2024-02-21T00:17:55;48.17;;;19.15;;
33902;SDS011;20194;50.950;5.346;2024-02-21T00:20:21;42.70;;;16.00;;
33902;SDS011;20194;50.950;5.346;2024-02-21T00:22:47;41.65;;;14.82;;
33902;SDS011;20194;50.950;5.346;2024-02-21T00:25:13;35.65;;;14.95;;
33902;SDS011;20194;50.950;5.346;2024-02-21T00:27:38;35.55;;;15.43;;
33902;SDS011;20194;50.950;5.346;2024-02-21T00:30:04;40.28;;;15.18;;
33902;SDS011;20194;50.950;5.346;2024-02-21T00:32:31;30.90;;;13.88;;
33902;SDS011;20194;50.950;5.346;2024-02-21T00:34:59;47.58;;;15.07;;
33902;SDS011;20194;50.950;5.346;2024-02-21T00:37:24;46.15;;;15.35;;
33902;SDS011;20194;50.950;5.346;2024-02-21T00:39:50;44.97;;;16.95;;
33902;SDS011;20194;50.950;5.346;2024-02-21T00:42:16;37.53;;;15.57;;
33902;SDS011;20194;50.950;5.346;2024-02-21T00:44:42;38.50;;;15.48;;
33902;SDS011;20194;50.950;5.346;2024-02-21T00:47:07;49.03;;;14.48;;
33902;SDS011;20194;50.950;5.346;2024-02-21T00:49:35;35.15;;;12.05;;
33902;SDS011;20194;50.950;5.346;2024-02-21T00:52:01;38.85;;;13.65;;
33902;SDS011;20194;50.950;5.346;2024-02-21T00:54:26;36.22;;;14.48;;
33902;SDS011;20194;50.950;5.346;2024-02-21T00:56:52;36.00;;;14.10;;
33902;SDS011;20194;50.950;5.346;2024-02-21T00:59:18;35.13;;;13.43;;
33902;SDS011;20194;50.950;5.346;2024-02-21T01:01:44;34.95;;;13.68;;
33902;SDS011;20194;50.950;5.346;2024-02-21T01:04:09;37.00;;;13.20;;
33902;SDS011;20194;50.950;5.346;2024-02-21T01:06:35;36.70;;;13.68;;
33902;SDS011;20194;50.950;5.346;2024-02-21T01:09:01;38.92;;;11.05;;
33902;SDS011;20194;50.950;5.346;2024-02-21T01:11:26;35.47;;;13.23;;
33902;SDS011;20194;50.950;5.346;2024-02-21T01:13:52;35.30;;;13.80;;
33902;SDS011;20194;50.950;5.346;2024-02-21T01:16:18;36.03;;;13.20;;
33902;SDS011;20194;50.950;5.346;2024-02-21T01:18:44;31.23;;;11.73;;
33902;SDS011;20194;50.950;5.346;2024-02-21T01:21:09;34.83;;;12.02;;
33902;SDS011;20194;50.950;5.346;2024-02-21T01:23:36;36.90;;;11.43;;
33902;SDS011;20194;50.950;5.346;2024-02-21T01:26:05;31.67;;;12.25;;
33902;SDS011;20194;50.950;5.346;2024-02-21T01:28:33;29.27;;;11.40;;
33902;SDS011;20194;50.950;5.346;2024-02-21T01:30:59;32.72;;;12.30;;
33902;SDS011;20194;50.950;5.346;2024-02-21T01:33:24;30.83;;;12.15;;
33902;SDS011;20194;50.950;5.346;2024-02-21T01:35:50;32.00;;;11.90;;
33902;SDS011;20194;50.950;5.346;2024-02-21T01:38:16;29.30;;;10.88;;
33902;SDS011;20194;50.950;5.346;2024-02-21T01:40:42;34.50;;;12.68;;
33902;SDS011;20194;50.950;5.346;2024-02-21T01:43:20;30.13;;;10.82;;
33902;SDS011;20194;50.950;5.346;2024-02-21T01:45:47;29.55;;;11.35;;
33902;SDS011;20194;50.950;5.346;2024-02-21T01:48:18;27.02;;;10.85;;
33902;SDS011;20194;50.950;5.346;2024-02-21T01:50:44;30.58;;;10.88;;
33902;SDS011;20194;50.950;5.346;2024-02-21T01:53:11;25.45;;;9.77;;
33902;SDS011;20194;50.950;5.346;2024-02-21T01:55:43;27.55;;;9.80;;
33902;SDS011;20194;50.950;5.346;2024-02-21T01:58:15;24.60;;;9.82;;
33902;SDS011;20194;50.950;5.346;2024-02-21T02:00:41;23.25;;;10.13;;
33902;SDS011;20194;50.950;5.346;2024-02-21T02:03:12;23.70;;;10.00;;
33902;SDS011;20194;50.950;5.346;2024-02-21T02:05:42;25.17;;;11.23;;
33902;SDS011;20194;50.950;5.346;2024-02-21T02:08:09;41.40;;;9.88;;
33902;SDS011;20194;50.950;5.346;2024-02-21T02:10:35;29.52;;;11.57;;
33902;SDS011;20194;50.950;5.346;2024-02-21T02:13:02;29.25;;;10.30;;
33902;SDS011;20194;50.950;5.346;2024-02-21T02:15:37;39.50;;;11.27;;
33902;SDS011;20194;50.950;5.346;2024-02-21T02:18:06;23.83;;;8.98;;
33902;SDS011;20194;50.950;5.346;2024-02-21T02:20:33;21.83;;;9.00;;
33902;SDS011;20194;50.950;5.346;2024-02-21T02:23:00;32.78;;;11.07;;
33902;SDS011;20194;50.950;5.346;2024-02-21T02:25:37;23.65;;;10.40;;
33902;SDS011;20194;50.950;5.346;2024-02-21T02:28:04;27.95;;;12.02;;
33902;SDS011;20194;50.950;5.346;2024-02-21T02:30:40;30.98;;;9.68;;
33902;SDS011;20194;50.950;5.346;2024-02-21T02:33:05;32.83;;;10.57;;
33902;SDS011;20194;50.950;5.346;2024-02-21T02:35:31;29.42;;;10.38;;
33902;SDS011;20194;50.950;5.346;2024-02-21T02:38:00;28.02;;;9.82;;
33902;SDS011;20194;50.950;5.346;2024-02-21T02:40:26;30.88;;;9.77;;
33902;SDS011;20194;50.950;5.346;2024-02-21T02:42:52;31.10;;;11.43;;
33902;SDS011;20194;50.950;5.346;2024-02-21T02:45:20;23.60;;;9.73;;
33902;SDS011;20194;50.950;5.346;2024-02-21T02:47:48;33.67;;;9.85;;
33902;SDS011;20194;50.950;5.346;2024-02-21T02:50:14;25.83;;;10.80;;
33902;SDS011;20194;50.950;5.346;2024-02-21T02:52:39;30.38;;;9.70;;
33902;SDS011;20194;50.950;5.346;2024-02-21T02:55:06;25.98;;;10.18;;
33902;SDS011;20194;50.950;5.346;2024-02-21T02:57:32;40.00;;;10.98;;
33902;SDS011;20194;50.950;5.346;2024-02-21T02:59:58;32.03;;;10.13;;
33902;SDS011;20194;50.950;5.346;2024-02-21T03:02:24;27.42;;;10.48;;
33902;SDS011;20194;50.950;5.346;2024-02-21T03:04:50;28.73;;;10.60;;
33902;SDS011;20194;50.950;5.346;2024-02-21T03:07:16;31.63;;;10.65;;
33902;SDS011;20194;50.950;5.346;2024-02-21T03:09:41;28.52;;;10.45;;
33902;SDS011;20194;50.950;5.346;2024-02-21T03:12:10;23.38;;;9.32;;
33902;SDS011;20194;50.950;5.346;2024-02-21T03:14:36;27.42;;;9.80;;
33902;SDS011;20194;50.950;5.346;2024-02-21T03:17:02;29.08;;;10.00;;
33902;SDS011;20194;50.950;5.346;2024-02-21T03:19:29;42.15;;;11.90;;
33902;SDS011;20194;50.950;5.346;2024-02-21T03:21:55;30.33;;;10.30;;
33902;SDS011;20194;50.950;5.346;2024-02-21T03:24:21;31.55;;;10.15;;
33902;SDS011;20194;50.950;5.346;2024-02-21T03:26:47;30.52;;;9.65;;
33902;SDS011;20194;50.950;5.346;2024-02-21T03:29:14;22.13;;;9.88;;
33902;SDS011;20194;50.950;5.346;2024-02-21T03:31:41;36.25;;;11.52;;
33902;SDS011;20194;50.950;5.346;2024-02-21T03:34:07;37.63;;;9.75;;
33902;SDS011;20194;50.950;5.346;2024-02-21T03:36:33;26.85;;;10.23;;
33902;SDS011;20194;50.950;5.346;2024-02-21T03:38:58;27.25;;;9.98;;
33902;SDS011;20194;50.950;5.346;2024-02-21T03:41:26;29.02;;;10.00;;
33902;SDS011;20194;50.950;5.346;2024-02-21T03:43:52;32.63;;;10.13;;
33902;SDS011;20194;50.950;5.346;2024-02-21T03:46:18;34.17;;;10.75;;
33902;SDS011;20194;50.950;5.346;2024-02-21T03:48:43;25.58;;;9.27;;
33902;SDS011;20194;50.950;5.346;2024-02-21T03:51:10;28.20;;;9.98;;
33902;SDS011;20194;50.950;5.346;2024-02-21T03:53:36;27.92;;;10.18;;
33902;SDS011;20194;50.950;5.346;2024-02-21T03:56:02;27.58;;;10.40;;
33902;SDS011;20194;50.950;5.346;2024-02-21T03:58:32;28.88;;;11.40;;
33902;SDS011;20194;50.950;5.346;2024-02-21T04:00:59;33.10;;;10.35;;
33902;SDS011;20194;50.950;5.346;2024-02-21T04:03:26;25.63;;;9.82;;
33902;SDS011;20194;50.950;5.346;2024-02-21T04:05:52;30.27;;;9.77;;
33902;SDS011;20194;50.950;5.346;2024-02-21T04:08:18;27.25;;;9.85;;
33902;SDS011;20194;50.950;5.346;2024-02-21T04:10:43;25.92;;;9.57;;
33902;SDS011;20194;50.950;5.346;2024-02-21T04:13:09;26.02;;;10.10;;
33902;SDS011;20194;50.950;5.346;2024-02-21T04:15:35;25.40;;;10.25;;
33902;SDS011;20194;50.950;5.346;2024-02-21T04:18:01;29.73;;;10.50;;
33902;SDS011;20194;50.950;5.346;2024-02-21T04:20:29;26.23;;;9.25;;
33902;SDS011;20194;50.950;5.346;2024-02-21T04:22:55;33.03;;;10.30;;
33902;SDS011;20194;50.950;5.346;2024-02-21T04:25:21;20.45;;;8.70;;
33902;SDS011;20194;50.950;5.346;2024-02-21T04:27:47;26.92;;;9.70;;
33902;SDS011;20194;50.950;5.346;2024-02-21T04:30:13;24.05;;;8.57;;
33902;SDS011;20194;50.950;5.346;2024-02-21T04:32:39;30.63;;;9.85;;
33902;SDS011;20194;50.950;5.346;2024-02-21T04:35:05;36.13;;;10.95;;
33902;SDS011;20194;50.950;5.346;2024-02-21T04:37:32;24.40;;;9.38;;
33902;SDS011;20194;50.950;5.346;2024-02-21T04:39:57;27.63;;;10.52;;
33902;SDS011;20194;50.950;5.346;2024-02-21T04:42:23;29.70;;;10.05;;
33902;SDS011;20194;50.950;5.346;2024-02-21T04:44:49;31.52;;;9.57;;
33902;SDS011;20194;50.950;5.346;2024-02-21T04:47:15;34.63;;;10.13;;
33902;SDS011;20194;50.950;5.346;2024-02-21T04:49:40;28.05;;;9.45;;
33902;SDS011;20194;50.950;5.346;2024-02-21T04:52:06;25.92;;;10.40;;
33902;SDS011;20194;50.950;5.346;2024-02-21T04:54:32;34.42;;;9.77;;
33902;SDS011;20194;50.950;5.346;2024-02-21T04:56:57;25.05;;;9.57;;
33902;SDS011;20194;50.950;5.346;2024-02-21T04:59:23;35.92;;;10.88;;
33902;SDS011;20194;50.950;5.346;2024-02-21T05:01:49;27.42;;;11.23;;
33902;SDS011;20194;50.950;5.346;2024-02-21T05:04:15;33.00;;;10.15;;
33902;SDS011;20194;50.950;5.346;2024-02-21T05:06:41;25.13;;;8.75;;
33902;SDS011;20194;50.950;5.346;2024-02-21T05:09:07;30.02;;;9.50;;
33902;SDS011;20194;50.950;5.346;2024-02-21T05:11:34;29.98;;;8.65;;
33902;SDS011;20194;50.950;5.346;2024-02-21T05:14:00;31.05;;;9.40;;
33902;SDS011;20194;50.950;5.346;2024-02-21T05:16:26;24.42;;;8.38;;
33902;SDS011;20194;50.950;5.346;2024-02-21T05:18:51;33.67;;;8.73;;
33902;SDS011;20194;50.950;5.346;2024-02-21T05:21:17;28.98;;;8.45;;
33902;SDS011;20194;50.950;5.346;2024-02-21T05:23:44;26.00;;;8.13;;
33902;SDS011;20194;50.950;5.346;2024-02-21T05:26:09;23.73;;;8.35;;
33902;SDS011;20194;50.950;5.346;2024-02-21T05:28:35;26.27;;;8.43;;
33902;SDS011;20194;50.950;5.346;2024-02-21T05:31:01;18.75;;;8.80;;
33902;SDS011;20194;50.950;5.346;2024-02-21T05:33:26;22.77;;;8.45;;
33902;SDS011;20194;50.950;5.346;2024-02-21T05:35:52;24.52;;;8.30;;
33902;SDS011;20194;50.950;5.346;2024-02-21T05:38:18;22.52;;;8.55;;
33902;SDS011;20194;50.950;5.346;2024-02-21T05:40:47;16.48;;;7.78;;
33902;SDS011;20194;50.950;5.346;2024-02-21T05:43:13;23.92;;;8.45;;
33902;SDS011;20194;50.950;5.346;2024-02-21T05:45:38;20.60;;;7.85;;
33902;SDS011;20194;50.950;5.346;2024-02-21T05:48:04;17.65;;;7.72;;
33902;SDS011;20194;50.950;5.346;2024-02-21T05:50:30;14.48;;;7.93;;
33902;SDS011;20194;50.950;5.346;2024-02-21T05:52:57;23.98;;;8.27;;
33902;SDS011;20194;50.950;5.346;2024-02-21T05:55:23;22.45;;;8.25;;
33902;SDS011;20194;50.950;5.346;2024-02-21T05:57:49;15.77;;;8.43;;
33902;SDS011;20194;50.950;5.346;2024-02-21T06:00:15;17.98;;;7.90;;
33902;SDS011;20194;50.950;5.346;2024-02-21T06:02:41;21.25;;;8.52;;
33902;SDS011;20194;50.950;5.346;2024-02-21T06:05:07;16.88;;;8.25;;
33902;SDS011;20194;50.950;5.346;2024-02-21T06:07:34;26.48;;;8.27;;
33902;SDS011;20194;50.950;5.346;2024-02-21T06:10:00;20.83;;;7.88;;
33902;SDS011;20194;50.950;5.346;2024-02-21T06:12:28;14.45;;;6.63;;
33902;SDS011;20194;50.950;5.346;2024-02-21T06:14:54;20.95;;;9.00;;
33902;SDS011;20194;50.950;5.346;2024-02-21T06:17:20;21.30;;;8.68;;
33902;SDS011;20194;50.950;5.346;2024-02-21T06:19:45;25.45;;;8.63;;
33902;SDS011;20194;50.950;5.346;2024-02-21T06:22:11;20.23;;;7.28;;
33902;SDS011;20194;50.950;5.346;2024-02-21T06:24:37;22.33;;;8.18;;
33902;SDS011;20194;50.950;5.346;2024-02-21T06:27:04;22.45;;;8.50;;
33902;SDS011;20194;50.950;5.346;2024-02-21T06:29:31;19.15;;;8.88;;
33902;SDS011;20194;50.950;5.346;2024-02-21T06:31:59;20.08;;;8.48;;
33902;SDS011;20194;50.950;5.346;2024-02-21T06:34:25;17.38;;;9.40;;
33902;SDS011;20194;50.950;5.346;2024-02-21T06:36:51;18.75;;;9.38;;
33902;SDS011;20194;50.950;5.346;2024-02-21T06:39:16;22.77;;;10.00;;
33902;SDS011;20194;50.950;5.346;2024-02-21T06:41:42;23.83;;;10.43;;
33902;SDS011;20194;50.950;5.346;2024-02-21T06:44:09;21.25;;;10.73;;
33902;SDS011;20194;50.950;5.346;2024-02-21T06:46:34;23.20;;;12.52;;
33902;SDS011;20194;50.950;5.346;2024-02-21T06:49:00;22.35;;;9.93;;
33902;SDS011;20194;50.950;5.346;2024-02-21T06:51:28;30.85;;;10.52;;
33902;SDS011;20194;50.950;5.346;2024-02-21T06:53:54;22.52;;;9.52;;
33902;SDS011;20194;50.950;5.346;2024-02-21T06:56:20;25.15;;;10.00;;
33902;SDS011;20194;50.950;5.346;2024-02-21T06:58:51;21.92;;;8.68;;
33902;SDS011;20194;50.950;5.346;2024-02-21T07:01:18;21.38;;;8.38;;
33902;SDS011;20194;50.950;5.346;2024-02-21T07:03:43;21.30;;;8.45;;
33902;SDS011;20194;50.950;5.346;2024-02-21T07:06:09;23.98;;;9.50;;
33902;SDS011;20194;50.950;5.346;2024-02-21T07:08:35;24.67;;;9.90;;
33902;SDS011;20194;50.950;5.346;2024-02-21T07:11:00;22.48;;;7.40;;
33902;SDS011;20194;50.950;5.346;2024-02-21T07:13:26;26.00;;;10.63;;
33902;SDS011;20194;50.950;5.346;2024-02-21T07:15:51;24.83;;;9.60;;
33902;SDS011;20194;50.950;5.346;2024-02-21T07:18:17;25.38;;;11.07;;
33902;SDS011;20194;50.950;5.346;2024-02-21T07:20:43;30.83;;;10.77;;
33902;SDS011;20194;50.950;5.346;2024-02-21T07:23:09;23.67;;;9.65;;
33902;SDS011;20194;50.950;5.346;2024-02-21T07:25:35;27.17;;;9.27;;
33902;SDS011;20194;50.950;5.346;2024-02-21T07:28:00;23.85;;;10.13;;
33902;SDS011;20194;50.950;5.346;2024-02-21T07:30:26;28.23;;;9.93;;
33902;SDS011;20194;50.950;5.346;2024-02-21T07:32:52;30.55;;;9.70;;
33902;SDS011;20194;50.950;5.346;2024-02-21T07:35:18;23.98;;;9.52;;
33902;SDS011;20194;50.950;5.346;2024-02-21T07:37:43;31.83;;;9.38;;
33902;SDS011;20194;50.950;5.346;2024-02-21T07:40:13;32.67;;;10.38;;
33902;SDS011;20194;50.950;5.346;2024-02-21T07:42:39;23.70;;;8.80;;
33902;SDS011;20194;50.950;5.346;2024-02-21T07:45:06;19.58;;;9.07;;
33902;SDS011;20194;50.950;5.346;2024-02-21T07:47:32;27.75;;;9.85;;
33902;SDS011;20194;50.950;5.346;2024-02-21T07:49:58;20.92;;;7.63;;
33902;SDS011;20194;50.950;5.346;2024-02-21T07:52:24;22.10;;;8.93;;
33902;SDS011;20194;50.950;5.346;2024-02-21T07:54:50;25.80;;;10.27;;
33902;SDS011;20194;50.950;5.346;2024-02-21T07:57:15;23.05;;;9.63;;
33902;SDS011;20194;50.950;5.346;2024-02-21T07:59:41;30.52;;;9.25;;
33902;SDS011;20194;50.950;5.346;2024-02-21T08:02:07;26.48;;;8.52;;
33902;SDS011;20194;50.950;5.346;2024-02-21T08:04:34;19.75;;;7.90;;
33902;SDS011;20194;50.950;5.346;2024-02-21T08:06:59;26.92;;;8.57;;
33902;SDS011;20194;50.950;5.346;2024-02-21T08:09:29;17.23;;;8.07;;
33902;SDS011;20194;50.950;5.346;2024-02-21T08:11:55;22.65;;;9.35;;
33902;SDS011;20194;50.950;5.346;2024-02-21T08:14:21;21.65;;;8.65;;
33902;SDS011;20194;50.950;5.346;2024-02-21T08:16:47;21.05;;;8.13;;
33902;SDS011;20194;50.950;5.346;2024-02-21T08:19:13;20.58;;;7.90;;
33902;SDS011;20194;50.950;5.346;2024-02-21T08:21:39;18.60;;;7.55;;
33902;SDS011;20194;50.950;5.346;2024-02-21T08:24:04;24.50;;;7.50;;
33902;SDS011;20194;50.950;5.346;2024-02-21T08:26:30;14.27;;;6.00;;
33902;SDS011;20194;50.950;5.346;2024-02-21T08:28:56;22.08;;;6.75;;
33902;SDS011;20194;50.950;5.346;2024-02-21T08:31:28;14.27;;;6.20;;
33902;SDS011;20194;50.950;5.346;2024-02-21T08:33:57;15.60;;;6.53;;
33902;SDS011;20194;50.950;5.346;2024-02-21T08:36:33;15.65;;;6.15;;
33902;SDS011;20194;50.950;5.346;2024-02-21T08:38:59;17.38;;;6.80;;
33902;SDS011;20194;50.950;5.346;2024-02-21T08:41:26;18.73;;;6.43;;
33902;SDS011;20194;50.950;5.346;2024-02-21T08:43:52;23.77;;;6.97;;
33902;SDS011;20194;50.950;5.346;2024-02-21T08:46:19;10.68;;;6.20;;
33902;SDS011;20194;50.950;5.346;2024-02-21T08:48:54;11.77;;;5.85;;
33902;SDS011;20194;50.950;5.346;2024-02-21T08:51:20;16.90;;;6.30;;
33902;SDS011;20194;50.950;5.346;2024-02-21T08:53:46;17.42;;;6.47;;
33902;SDS011;20194;50.950;5.346;2024-02-21T08:56:12;17.35;;;5.57;;
33902;SDS011;20194;50.950;5.346;2024-02-21T08:58:39;17.10;;;6.22;;
33902;SDS011;20194;50.950;5.346;2024-02-21T09:01:05;17.08;;;5.75;;
33902;SDS011;20194;50.950;5.346;2024-02-21T09:03:35;15.68;;;5.82;;
33902;SDS011;20194;50.950;5.346;2024-02-21T09:06:05;19.80;;;6.22;;
33902;SDS011;20194;50.950;5.346;2024-02-21T09:08:31;15.07;;;5.22;;
33902;SDS011;20194;50.950;5.346;2024-02-21T09:10:57;15.95;;;5.13;;
33902;SDS011;20194;50.950;5.346;2024-02-21T09:13:23;10.00;;;4.75;;
33902;SDS011;20194;50.950;5.346;2024-02-21T09:15:49;20.48;;;6.00;;
33902;SDS011;20194;50.950;5.346;2024-02-21T09:18:15;17.33;;;6.03;;
33902;SDS011;20194;50.950;5.346;2024-02-21T09:20:44;15.68;;;5.50;;
33902;SDS011;20194;50.950;5.346;2024-02-21T09:23:11;15.68;;;5.38;;
33902;SDS011;20194;50.950;5.346;2024-02-21T09:25:37;19.15;;;5.63;;
33902;SDS011;20194;50.950;5.346;2024-02-21T09:28:03;14.35;;;5.78;;
33902;SDS011;20194;50.950;5.346;2024-02-21T09:30:31;13.15;;;4.85;;
33902;SDS011;20194;50.950;5.346;2024-02-21T09:32:57;18.77;;;5.45;;
33902;SDS011;20194;50.950;5.346;2024-02-21T09:35:26;13.75;;;6.20;;
33902;SDS011;20194;50.950;5.346;2024-02-21T09:37:52;9.23;;;5.53;;
33902;SDS011;20194;50.950;5.346;2024-02-21T09:40:19;14.02;;;5.53;;
33902;SDS011;20194;50.950;5.346;2024-02-21T09:42:46;16.63;;;5.85;;
33902;SDS011;20194;50.950;5.346;2024-02-21T09:50:14;14.60;;;5.95;;
33902;SDS011;20194;50.950;5.346;2024-02-21T09:52:40;16.73;;;6.43;;
33902;SDS011;20194;50.950;5.346;2024-02-21T09:55:08;23.35;;;6.47;;
33902;SDS011;20194;50.950;5.346;2024-02-21T09:57:37;19.63;;;6.40;;
33902;SDS011;20194;50.950;5.346;2024-02-21T10:00:03;18.25;;;5.55;;
33902;SDS011;20194;50.950;5.346;2024-02-21T10:02:33;20.35;;;5.72;;
33902;SDS011;20194;50.950;5.346;2024-02-21T10:05:00;12.23;;;5.03;;
33902;SDS011;20194;50.950;5.346;2024-02-21T10:07:26;19.77;;;5.78;;
33902;SDS011;20194;50.950;5.346;2024-02-21T10:10:01;17.38;;;5.60;;
33902;SDS011;20194;50.950;5.346;2024-02-21T10:12:28;15.98;;;6.32;;
33902;SDS011;20194;50.950;5.346;2024-02-21T10:15:00;17.88;;;5.78;;
33902;SDS011;20194;50.950;5.346;2024-02-21T10:17:27;15.15;;;5.78;;
33902;SDS011;20194;50.950;5.346;2024-02-21T10:19:52;16.75;;;5.43;;
33902;SDS011;20194;50.950;5.346;2024-02-21T10:22:18;14.48;;;5.10;;
33902;SDS011;20194;50.950;5.346;2024-02-21T10:24:45;17.13;;;5.57;;
33902;SDS011;20194;50.950;5.346;2024-02-21T10:27:11;22.98;;;6.18;;
33902;SDS011;20194;50.950;5.346;2024-02-21T10:29:37;14.20;;;5.47;;
33902;SDS011;20194;50.950;5.346;2024-02-21T10:32:06;12.45;;;5.03;;
33902;SDS011;20194;50.950;5.346;2024-02-21T10:34:33;15.20;;;4.82;;
33902;SDS011;20194;50.950;5.346;2024-02-21T10:37:08;14.68;;;4.03;;
33902;SDS011;20194;50.950;5.346;2024-02-21T10:39:38;13.52;;;4.68;;
33902;SDS011;20194;50.950;5.346;2024-02-21T10:42:05;21.70;;;5.65;;
33902;SDS011;20194;50.950;5.346;2024-02-21T10:44:32;16.75;;;6.05;;
33902;SDS011;20194;50.950;5.346;2024-02-21T10:47:08;19.45;;;6.32;;
33902;SDS011;20194;50.950;5.346;2024-02-21T10:49:37;16.52;;;5.32;;
33902;SDS011;20194;50.950;5.346;2024-02-21T10:52:24;32.03;;;5.68;;
33902;SDS011;20194;50.950;5.346;2024-02-21T10:55:04;12.50;;;5.15;;
33902;SDS011;20194;50.950;5.346;2024-02-21T10:57:34;13.93;;;4.93;;
33902;SDS011;20194;50.950;5.346;2024-02-21T11:00:03;19.77;;;5.20;;
33902;SDS011;20194;50.950;5.346;2024-02-21T11:02:33;14.93;;;5.47;;
33902;SDS011;20194;50.950;5.346;2024-02-21T11:04:59;17.58;;;5.30;;
33902;SDS011;20194;50.950;5.346;2024-02-21T11:07:28;16.92;;;5.40;;
33902;SDS011;20194;50.950;5.346;2024-02-21T11:09:57;11.98;;;4.93;;
33902;SDS011;20194;50.950;5.346;2024-02-21T11:12:24;16.42;;;5.63;;
33902;SDS011;20194;50.950;5.346;2024-02-21T11:14:52;15.63;;;5.82;;
33902;SDS011;20194;50.950;5.346;2024-02-21T11:17:29;15.88;;;6.78;;
33902;SDS011;20194;50.950;5.346;2024-02-21T11:19:55;12.88;;;5.97;;
33902;SDS011;20194;50.950;5.346;2024-02-21T11:22:20;17.25;;;6.68;;
33902;SDS011;20194;50.950;5.346;2024-02-21T11:24:47;12.55;;;5.38;;
33902;SDS011;20194;50.950;5.346;2024-02-21T11:27:20;15.00;;;5.53;;
33902;SDS011;20194;50.950;5.346;2024-02-21T11:29:54;15.77;;;5.70;;
33902;SDS011;20194;50.950;5.346;2024-02-21T11:37:26;13.70;;;5.30;;
33902;SDS011;20194;50.950;5.346;2024-02-21T11:39:57;18.52;;;5.43;;
33902;SDS011;20194;50.950;5.346;2024-02-21T11:42:24;20.02;;;5.93;;
33902;SDS011;20194;50.950;5.346;2024-02-21T11:44:50;12.45;;;5.32;;
33902;SDS011;20194;50.950;5.346;2024-02-21T11:47:17;10.88;;;5.03;;
33902;SDS011;20194;50.950;5.346;2024-02-21T11:49:46;17.45;;;5.43;;
33902;SDS011;20194;50.950;5.346;2024-02-21T11:52:19;16.10;;;5.80;;
33902;SDS011;20194;50.950;5.346;2024-02-21T11:54:50;15.40;;;5.28;;
33902;SDS011;20194;50.950;5.346;2024-02-21T11:57:17;17.23;;;5.72;;
33902;SDS011;20194;50.950;5.346;2024-02-21T11:59:44;14.40;;;5.30;;
33902;SDS011;20194;50.950;5.346;2024-02-21T12:02:11;16.27;;;5.40;;
33902;SDS011;20194;50.950;5.346;2024-02-21T12:04:37;14.93;;;4.68;;
33902;SDS011;20194;50.950;5.346;2024-02-21T12:07:04;15.50;;;5.00;;
33902;SDS011;20194;50.950;5.346;2024-02-21T12:09:31;9.55;;;4.40;;
33902;SDS011;20194;50.950;5.346;2024-02-21T12:11:57;14.73;;;4.47;;
33902;SDS011;20194;50.950;5.346;2024-02-21T12:14:28;14.95;;;4.93;;
33902;SDS011;20194;50.950;5.346;2024-02-21T12:17:01;10.07;;;4.68;;
33902;SDS011;20194;50.950;5.346;2024-02-21T12:19:29;12.65;;;4.15;;
33902;SDS011;20194;50.950;5.346;2024-02-21T12:21:58;14.27;;;3.72;;
33902;SDS011;20194;50.950;5.346;2024-02-21T12:24:25;14.80;;;3.88;;
33902;SDS011;20194;50.950;5.346;2024-02-21T12:26:52;8.20;;;2.60;;
33902;SDS011;20194;50.950;5.346;2024-02-21T12:29:21;11.68;;;3.45;;
33902;SDS011;20194;50.950;5.346;2024-02-21T12:31:47;7.85;;;3.63;;
33902;SDS011;20194;50.950;5.346;2024-02-21T12:34:14;5.60;;;2.97;;
33902;SDS011;20194;50.950;5.346;2024-02-21T12:36:41;10.77;;;3.67;;
33902;SDS011;20194;50.950;5.346;2024-02-21T12:39:12;15.77;;;3.42;;
33902;SDS011;20194;50.950;5.346;2024-02-21T12:41:38;10.25;;;3.25;;
33902;SDS011;20194;50.950;5.346;2024-02-21T12:44:05;8.30;;;2.85;;
33902;SDS011;20194;50.950;5.346;2024-02-21T12:46:36;7.80;;;2.97;;
33902;SDS011;20194;50.950;5.346;2024-02-21T12:49:02;8.07;;;3.25;;
33902;SDS011;20194;50.950;5.346;2024-02-21T12:51:28;8.45;;;2.50;;
33902;SDS011;20194;50.950;5.346;2024-02-21T12:53:54;10.57;;;3.05;;
33902;SDS011;20194;50.950;5.346;2024-02-21T12:56:20;12.15;;;3.25;;
33902;SDS011;20194;50.950;5.346;2024-02-21T12:58:46;10.90;;;3.88;;
33902;SDS011;20194;50.950;5.346;2024-02-21T13:01:13;8.02;;;2.70;;
33902;SDS011;20194;50.950;5.346;2024-02-21T13:03:39;9.77;;;2.83;;
33902;SDS011;20194;50.950;5.346;2024-02-21T13:06:05;7.18;;;2.72;;
33902;SDS011;20194;50.950;5.346;2024-02-21T13:08:35;16.63;;;3.45;;
33902;SDS011;20194;50.950;5.346;2024-02-21T13:11:01;7.53;;;2.90;;
33902;SDS011;20194;50.950;5.346;2024-02-21T13:13:27;5.10;;;2.40;;
33902;SDS011;20194;50.950;5.346;2024-02-21T13:15:53;12.40;;;2.97;;
33902;SDS011;20194;50.950;5.346;2024-02-21T13:18:18;10.10;;;3.03;;
33902;SDS011;20194;50.950;5.346;2024-02-21T13:20:44;7.72;;;2.83;;
33902;SDS011;20194;50.950;5.346;2024-02-21T13:23:10;11.20;;;2.63;;
33902;SDS011;20194;50.950;5.346;2024-02-21T13:25:36;7.10;;;2.83;;
33902;SDS011;20194;50.950;5.346;2024-02-21T13:28:02;6.97;;;2.78;;
33902;SDS011;20194;50.950;5.346;2024-02-21T13:30:28;11.75;;;2.95;;
33902;SDS011;20194;50.950;5.346;2024-02-21T13:32:54;11.82;;;3.53;;
33902;SDS011;20194;50.950;5.346;2024-02-21T13:35:20;11.25;;;3.22;;
33902;SDS011;20194;50.950;5.346;2024-02-21T13:37:45;11.68;;;3.05;;
33902;SDS011;20194;50.950;5.346;2024-02-21T13:40:11;9.15;;;3.65;;
33902;SDS011;20194;50.950;5.346;2024-02-21T13:42:40;5.78;;;2.70;;
33902;SDS011;20194;50.950;5.346;2024-02-21T13:45:06;9.93;;;2.45;;
33902;SDS011;20194;50.950;5.346;2024-02-21T13:47:35;14.40;;;2.85;;
33902;SDS011;20194;50.950;5.346;2024-02-21T13:50:04;5.85;;;2.65;;
33902;SDS011;20194;50.950;5.346;2024-02-21T13:52:30;9.82;;;3.30;;
33902;SDS011;20194;50.950;5.346;2024-02-21T13:54:56;12.73;;;3.20;;
33902;SDS011;20194;50.950;5.346;2024-02-21T13:57:22;9.18;;;3.00;;
33902;SDS011;20194;50.950;5.346;2024-02-21T13:59:48;6.38;;;3.08;;
33902;SDS011;20194;50.950;5.346;2024-02-21T14:02:14;10.82;;;3.38;;
33902;SDS011;20194;50.950;5.346;2024-02-21T14:04:40;8.38;;;2.78;;
33902;SDS011;20194;50.950;5.346;2024-02-21T14:07:06;15.90;;;3.85;;
33902;SDS011;20194;50.950;5.346;2024-02-21T14:09:32;8.73;;;2.90;;
33902;SDS011;20194;50.950;5.346;2024-02-21T14:11:58;16.33;;;3.53;;
33902;SDS011;20194;50.950;5.346;2024-02-21T14:14:23;10.95;;;3.10;;
33902;SDS011;20194;50.950;5.346;2024-02-21T14:16:49;8.88;;;3.20;;
33902;SDS011;20194;50.950;5.346;2024-02-21T14:19:15;8.48;;;3.38;;
33902;SDS011;20194;50.950;5.346;2024-02-21T14:21:41;11.35;;;3.08;;
33902;SDS011;20194;50.950;5.346;2024-02-21T14:24:07;9.57;;;3.58;;
33902;SDS011;20194;50.950;5.346;2024-02-21T14:26:33;9.27;;;3.50;;
33902;SDS011;20194;50.950;5.346;2024-02-21T14:28:59;7.10;;;2.47;;
33902;SDS011;20194;50.950;5.346;2024-02-21T14:31:25;8.23;;;2.22;;
33902;SDS011;20194;50.950;5.346;2024-02-21T14:33:51;6.97;;;2.75;;
33902;SDS011;20194;50.950;5.346;2024-02-21T14:36:16;14.63;;;3.42;;
33902;SDS011;20194;50.950;5.346;2024-02-21T14:38:42;11.95;;;3.65;;